sensor_id;sensor_type;location;lat;lon;timestamp;P1;durP1;ratioP1;P2;durP2;ratioP2
9280;SDS011;4679;47.966;7.958;2023-05-10T05:21:25;1.30;;;0.27;;
9280;SDS011;4679;47.966;7.958;2023-05-10T05:23:27;1.70;;;0.40;;
9280;SDS011;4679;47.966;7.958;2023-05-10T05:25:29;0.70;;;0.30;;
9280;SDS011;4679;47.966;7.958;2023-05-10T05:27:31;1.10;;;0.40;;
9280;SDS011;4679;47.966;7.958;2023-05-10T05:29:33;2.00;;;0.47;;
9280;SDS011;4679;47.966;7.958;2023-05-10T05:31:35;0.40;;;0.40;;
9280;SDS011;4679;47.966;7.958;2023-05-10T05:33:36;1.27;;;0.80;;
9280;SDS011;4679;47.966;7.958;2023-05-10T05:35:38;1.37;;;0.60;;
9280;SDS011;4679;47.966;7.958;2023-05-10T05:37:41;1.27;;;0.80;;
9280;SDS011;4679;47.966;7.958;2023-05-10T05:39:43;1.60;;;0.90;;
9280;SDS011;4679;47.966;7.958;2023-05-10T05:41:45;0.80;;;0.80;;
9280;SDS011;4679;47.966;7.958;2023-05-10T05:43:47;0.70;;;0.70;;
9280;SDS011;4679;47.966;7.958;2023-05-10T05:45:48;0.70;;;0.70;;
9280;SDS011;4679;47.966;7.958;2023-05-10T05:47:50;0.87;;;0.77;;
9280;SDS011;4679;47.966;7.958;2023-05-10T05:49:52;1.30;;;0.83;;
9280;SDS011;4679;47.966;7.958;2023-05-10T05:51:53;1.50;;;0.80;;
9280;SDS011;4679;47.966;7.958;2023-05-10T05:53:56;1.53;;;0.70;;
9280;SDS011;4679;47.966;7.958;2023-05-10T05:55:59;0.90;;;0.60;;
9280;SDS011;4679;47.966;7.958;2023-05-10T05:58:00;0.63;;;0.63;;
9280;SDS011;4679;47.966;7.958;2023-05-10T06:00:02;0.60;;;0.60;;
9280;SDS011;4679;47.966;7.958;2023-05-10T06:02:04;0.70;;;0.70;;
9280;SDS011;4679;47.966;7.958;2023-05-10T06:04:06;0.80;;;0.67;;
9280;SDS011;4679;47.966;7.958;2023-05-10T06:06:08;0.60;;;0.60;;
9280;SDS011;4679;47.966;7.958;2023-05-10T06:08:10;0.60;;;0.60;;
9280;SDS011;4679;47.966;7.958;2023-05-10T06:10:13;1.50;;;0.50;;
9280;SDS011;4679;47.966;7.958;2023-05-10T06:12:14;1.10;;;0.50;;
9280;SDS011;4679;47.966;7.958;2023-05-10T06:14:16;1.10;;;0.60;;
9280;SDS011;4679;47.966;7.958;2023-05-10T06:16:18;1.70;;;0.40;;
9280;SDS011;4679;47.966;7.958;2023-05-10T06:18:20;1.33;;;0.40;;
9280;SDS011;4679;47.966;7.958;2023-05-10T06:20:21;0.83;;;0.50;;
9280;SDS011;4679;47.966;7.958;2023-05-10T06:22:23;0.30;;;0.30;;
9280;SDS011;4679;47.966;7.958;2023-05-10T06:24:25;0.30;;;0.30;;
9280;SDS011;4679;47.966;7.958;2023-05-10T06:26:28;0.83;;;0.20;;
9280;SDS011;4679;47.966;7.958;2023-05-10T06:28:30;1.03;;;0.20;;
9280;SDS011;4679;47.966;7.958;2023-05-10T06:30:33;0.30;;;0.20;;
9280;SDS011;4679;47.966;7.958;2023-05-10T06:32:37;0.40;;;0.20;;
9280;SDS011;4679;47.966;7.958;2023-05-10T06:34:38;0.60;;;0.10;;
9280;SDS011;4679;47.966;7.958;2023-05-10T06:36:40;0.30;;;0.30;;
9280;SDS011;4679;47.966;7.958;2023-05-10T06:38:42;0.90;;;0.30;;
9280;SDS011;4679;47.966;7.958;2023-05-10T06:40:43;0.50;;;0.30;;
9280;SDS011;4679;47.966;7.958;2023-05-10T06:42:46;2.00;;;0.20;;
9280;SDS011;4679;47.966;7.958;2023-05-10T06:44:48;2.87;;;0.30;;
9280;SDS011;4679;47.966;7.958;2023-05-10T06:46:50;1.07;;;0.30;;
9280;SDS011;4679;47.966;7.958;2023-05-10T06:48:53;0.70;;;0.30;;
9280;SDS011;4679;47.966;7.958;2023-05-10T06:50:55;0.80;;;0.40;;
9280;SDS011;4679;47.966;7.958;2023-05-10T06:52:56;0.77;;;0.20;;
9280;SDS011;4679;47.966;7.958;2023-05-10T06:54:58;2.87;;;0.40;;
9280;SDS011;4679;47.966;7.958;2023-05-10T06:57:00;0.40;;;0.37;;
9280;SDS011;4679;47.966;7.958;2023-05-10T06:59:04;1.33;;;0.70;;
9280;SDS011;4679;47.966;7.958;2023-05-10T07:01:06;2.47;;;0.77;;
9280;SDS011;4679;47.966;7.958;2023-05-10T07:03:08;2.33;;;0.60;;
9280;SDS011;4679;47.966;7.958;2023-05-10T07:05:10;0.50;;;0.40;;
9280;SDS011;4679;47.966;7.958;2023-05-10T07:07:13;0.40;;;0.30;;
9280;SDS011;4679;47.966;7.958;2023-05-10T07:09:15;0.67;;;0.50;;
9280;SDS011;4679;47.966;7.958;2023-05-10T07:11:16;0.83;;;0.30;;
9280;SDS011;4679;47.966;7.958;2023-05-10T07:13:18;1.07;;;0.30;;
9280;SDS011;4679;47.966;7.958;2023-05-10T07:15:21;0.93;;;0.30;;
9280;SDS011;4679;47.966;7.958;2023-05-10T07:17:23;1.13;;;0.40;;
9280;SDS011;4679;47.966;7.958;2023-05-10T07:19:25;0.30;;;0.30;;
9280;SDS011;4679;47.966;7.958;2023-05-10T07:21:26;0.70;;;0.40;;
9280;SDS011;4679;47.966;7.958;2023-05-10T07:23:29;0.20;;;0.20;;
9280;SDS011;4679;47.966;7.958;2023-05-10T07:25:31;1.13;;;0.30;;
9280;SDS011;4679;47.966;7.958;2023-05-10T07:27:32;0.70;;;0.30;;
9280;SDS011;4679;47.966;7.958;2023-05-10T07:29:34;1.27;;;0.40;;
9280;SDS011;4679;47.966;7.958;2023-05-10T07:31:37;0.70;;;0.37;;
9280;SDS011;4679;47.966;7.958;2023-05-10T07:33:39;0.30;;;0.20;;
9280;SDS011;4679;47.966;7.958;2023-05-10T07:35:41;1.37;;;0.40;;
9280;SDS011;4679;47.966;7.958;2023-05-10T07:37:43;1.03;;;0.40;;
9280;SDS011;4679;47.966;7.958;2023-05-10T07:39:44;0.70;;;0.30;;
9280;SDS011;4679;47.966;7.958;2023-05-10T07:41:46;0.83;;;0.30;;
9280;SDS011;4679;47.966;7.958;2023-05-10T07:43:48;0.70;;;0.30;;
9280;SDS011;4679;47.966;7.958;2023-05-10T07:45:49;1.93;;;0.40;;
9280;SDS011;4679;47.966;7.958;2023-05-10T07:47:52;0.93;;;0.30;;
9280;SDS011;4679;47.966;7.958;2023-05-10T07:49:54;0.50;;;0.50;;
9280;SDS011;4679;47.966;7.958;2023-05-10T07:51:56;2.33;;;0.40;;
9280;SDS011;4679;47.966;7.958;2023-05-10T07:53:57;1.90;;;0.40;;
9280;SDS011;4679;47.966;7.958;2023-05-10T07:55:59;0.40;;;0.33;;
9280;SDS011;4679;47.966;7.958;2023-05-10T07:58:21;0.30;;;0.30;;
9280;SDS011;4679;47.966;7.958;2023-05-10T08:00:23;1.23;;;0.43;;
9280;SDS011;4679;47.966;7.958;2023-05-10T08:02:26;0.87;;;0.50;;
9280;SDS011;4679;47.966;7.958;2023-05-10T08:04:29;0.50;;;0.40;;
9280;SDS011;4679;47.966;7.958;2023-05-10T08:06:30;0.97;;;0.30;;
9280;SDS011;4679;47.966;7.958;2023-05-10T08:08:32;1.40;;;0.40;;
9280;SDS011;4679;47.966;7.958;2023-05-10T08:10:33;0.83;;;0.30;;
9280;SDS011;4679;47.966;7.958;2023-05-10T08:12:35;1.03;;;0.30;;
9280;SDS011;4679;47.966;7.958;2023-05-10T08:14:37;0.40;;;0.30;;
9280;SDS011;4679;47.966;7.958;2023-05-10T08:16:38;1.13;;;0.40;;
9280;SDS011;4679;47.966;7.958;2023-05-10T08:18:40;0.70;;;0.30;;
9280;SDS011;4679;47.966;7.958;2023-05-10T08:20:43;1.90;;;0.40;;
9280;SDS011;4679;47.966;7.958;2023-05-10T08:22:45;0.90;;;0.50;;
9280;SDS011;4679;47.966;7.958;2023-05-10T08:24:46;0.87;;;0.30;;
9280;SDS011;4679;47.966;7.958;2023-05-10T08:26:48;1.30;;;0.30;;
9280;SDS011;4679;47.966;7.958;2023-05-10T08:28:50;0.60;;;0.30;;
9280;SDS011;4679;47.966;7.958;2023-05-10T08:30:51;0.77;;;0.30;;
9280;SDS011;4679;47.966;7.958;2023-05-10T08:32:53;0.87;;;0.20;;
9280;SDS011;4679;47.966;7.958;2023-05-10T08:34:55;0.30;;;0.30;;
9280;SDS011;4679;47.966;7.958;2023-05-10T08:36:58;2.53;;;0.40;;
9280;SDS011;4679;47.966;7.958;2023-05-10T08:39:00;0.93;;;0.40;;
9280;SDS011;4679;47.966;7.958;2023-05-10T08:41:01;1.63;;;0.30;;
9280;SDS011;4679;47.966;7.958;2023-05-10T08:43:05;0.30;;;0.30;;
9280;SDS011;4679;47.966;7.958;2023-05-10T08:45:08;0.33;;;0.30;;
9280;SDS011;4679;47.966;7.958;2023-05-10T08:47:10;0.40;;;0.30;;
9280;SDS011;4679;47.966;7.958;2023-05-10T08:49:15;1.27;;;0.27;;
9280;SDS011;4679;47.966;7.958;2023-05-10T08:51:19;0.57;;;0.40;;
9280;SDS011;4679;47.966;7.958;2023-05-10T08:53:26;1.77;;;0.50;;
9280;SDS011;4679;47.966;7.958;2023-05-10T08:55:32;0.90;;;0.37;;
9280;SDS011;4679;47.966;7.958;2023-05-10T08:57:34;1.57;;;0.30;;
9280;SDS011;4679;47.966;7.958;2023-05-10T08:59:37;0.50;;;0.33;;
9280;SDS011;4679;47.966;7.958;2023-05-10T09:01:39;1.50;;;0.50;;
9280;SDS011;4679;47.966;7.958;2023-05-10T09:03:44;0.40;;;0.30;;
9280;SDS011;4679;47.966;7.958;2023-05-10T09:05:47;0.83;;;0.23;;
9280;SDS011;4679;47.966;7.958;2023-05-10T09:07:50;2.23;;;0.40;;
9280;SDS011;4679;47.966;7.958;2023-05-10T09:09:53;0.30;;;0.30;;
9280;SDS011;4679;47.966;7.958;2023-05-10T09:11:55;0.73;;;0.30;;
9280;SDS011;4679;47.966;7.958;2023-05-10T09:13:57;0.20;;;0.20;;
9280;SDS011;4679;47.966;7.958;2023-05-10T09:15:59;0.67;;;0.33;;
9280;SDS011;4679;47.966;7.958;2023-05-10T09:18:01;1.17;;;0.30;;
9280;SDS011;4679;47.966;7.958;2023-05-10T09:20:04;0.77;;;0.20;;
9280;SDS011;4679;47.966;7.958;2023-05-10T09:22:07;1.47;;;0.37;;
9280;SDS011;4679;47.966;7.958;2023-05-10T09:24:09;3.10;;;0.80;;
9280;SDS011;4679;47.966;7.958;2023-05-10T09:26:15;0.73;;;0.30;;
9280;SDS011;4679;47.966;7.958;2023-05-10T09:28:17;0.50;;;0.40;;
9280;SDS011;4679;47.966;7.958;2023-05-10T09:30:23;1.20;;;0.40;;
9280;SDS011;4679;47.966;7.958;2023-05-10T09:32:35;0.60;;;0.40;;
9280;SDS011;4679;47.966;7.958;2023-05-10T09:34:37;1.10;;;0.40;;
9280;SDS011;4679;47.966;7.958;2023-05-10T09:36:49;0.83;;;0.33;;
9280;SDS011;4679;47.966;7.958;2023-05-10T09:38:52;1.27;;;0.50;;
9280;SDS011;4679;47.966;7.958;2023-05-10T09:40:53;2.77;;;0.40;;
9280;SDS011;4679;47.966;7.958;2023-05-10T09:42:57;0.50;;;0.30;;
9280;SDS011;4679;47.966;7.958;2023-05-10T09:45:01;2.73;;;0.40;;
9280;SDS011;4679;47.966;7.958;2023-05-10T09:47:04;1.50;;;0.50;;
9280;SDS011;4679;47.966;7.958;2023-05-10T09:49:06;2.73;;;0.40;;
9280;SDS011;4679;47.966;7.958;2023-05-10T09:51:08;1.50;;;0.50;;
9280;SDS011;4679;47.966;7.958;2023-05-10T09:53:09;0.20;;;0.20;;
9280;SDS011;4679;47.966;7.958;2023-05-10T09:55:16;0.53;;;0.30;;
9280;SDS011;4679;47.966;7.958;2023-05-10T09:57:20;0.60;;;0.47;;
9280;SDS011;4679;47.966;7.958;2023-05-10T09:59:24;1.70;;;0.30;;
9280;SDS011;4679;47.966;7.958;2023-05-10T10:01:27;1.00;;;0.40;;
9280;SDS011;4679;47.966;7.958;2023-05-10T10:03:29;1.07;;;0.37;;
9280;SDS011;4679;47.966;7.958;2023-05-10T10:05:31;1.33;;;0.40;;
9280;SDS011;4679;47.966;7.958;2023-05-10T10:07:34;0.50;;;0.30;;
9280;SDS011;4679;47.966;7.958;2023-05-10T10:09:37;2.93;;;0.43;;
9280;SDS011;4679;47.966;7.958;2023-05-10T10:11:39;0.93;;;0.30;;
9280;SDS011;4679;47.966;7.958;2023-05-10T10:13:41;0.67;;;0.30;;
9280;SDS011;4679;47.966;7.958;2023-05-10T10:15:44;2.50;;;0.30;;
9280;SDS011;4679;47.966;7.958;2023-05-10T10:17:48;3.17;;;0.30;;
9280;SDS011;4679;47.966;7.958;2023-05-10T10:19:50;2.20;;;0.33;;
9280;SDS011;4679;47.966;7.958;2023-05-10T10:21:52;0.67;;;0.30;;
9280;SDS011;4679;47.966;7.958;2023-05-10T10:23:54;0.67;;;0.20;;
9280;SDS011;4679;47.966;7.958;2023-05-10T10:25:59;0.20;;;0.20;;
9280;SDS011;4679;47.966;7.958;2023-05-10T10:28:06;1.40;;;0.40;;
9280;SDS011;4679;47.966;7.958;2023-05-10T10:30:21;0.70;;;0.20;;
9280;SDS011;4679;47.966;7.958;2023-05-10T10:32:30;2.07;;;0.30;;
9280;SDS011;4679;47.966;7.958;2023-05-10T10:34:39;1.93;;;0.33;;
9280;SDS011;4679;47.966;7.958;2023-05-10T10:36:42;0.50;;;0.30;;
9280;SDS011;4679;47.966;7.958;2023-05-10T10:38:56;0.47;;;0.20;;
9280;SDS011;4679;47.966;7.958;2023-05-10T10:41:01;0.97;;;0.30;;
9280;SDS011;4679;47.966;7.958;2023-05-10T10:43:22;0.53;;;0.30;;
9280;SDS011;4679;47.966;7.958;2023-05-10T10:45:25;1.20;;;0.20;;
9280;SDS011;4679;47.966;7.958;2023-05-10T10:47:29;0.27;;;0.20;;
9280;SDS011;4679;47.966;7.958;2023-05-10T10:49:33;2.10;;;0.27;;
9280;SDS011;4679;47.966;7.958;2023-05-10T10:51:39;1.33;;;0.20;;
9280;SDS011;4679;47.966;7.958;2023-05-10T10:54:08;1.20;;;0.37;;
9280;SDS011;4679;47.966;7.958;2023-05-10T10:56:12;1.27;;;0.20;;
9280;SDS011;4679;47.966;7.958;2023-05-10T10:58:28;0.40;;;0.30;;
9280;SDS011;4679;47.966;7.958;2023-05-10T11:00:32;0.83;;;0.20;;
9280;SDS011;4679;47.966;7.958;2023-05-10T11:02:44;2.40;;;0.20;;
9280;SDS011;4679;47.966;7.958;2023-05-10T11:04:48;0.43;;;0.27;;
9280;SDS011;4679;47.966;7.958;2023-05-10T11:06:50;0.50;;;0.27;;
9280;SDS011;4679;47.966;7.958;2023-05-10T11:08:51;1.47;;;0.40;;
9280;SDS011;4679;47.966;7.958;2023-05-10T11:11:04;0.83;;;0.20;;
9280;SDS011;4679;47.966;7.958;2023-05-10T11:13:08;2.40;;;0.37;;
9280;SDS011;4679;47.966;7.958;2023-05-10T11:15:10;0.70;;;0.30;;
9280;SDS011;4679;47.966;7.958;2023-05-10T11:17:24;0.60;;;0.20;;
9280;SDS011;4679;47.966;7.958;2023-05-10T11:19:28;2.40;;;0.20;;
9280;SDS011;4679;47.966;7.958;2023-05-10T11:21:30;0.87;;;0.20;;
9280;SDS011;4679;47.966;7.958;2023-05-10T11:23:33;1.70;;;0.30;;
9280;SDS011;4679;47.966;7.958;2023-05-10T11:25:50;1.10;;;0.40;;
9280;SDS011;4679;47.966;7.958;2023-05-10T11:27:52;1.90;;;0.20;;
9280;SDS011;4679;47.966;7.958;2023-05-10T11:29:53;0.60;;;0.20;;
9280;SDS011;4679;47.966;7.958;2023-05-10T11:31:56;1.80;;;0.30;;
9280;SDS011;4679;47.966;7.958;2023-05-10T11:33:59;0.47;;;0.20;;
9280;SDS011;4679;47.966;7.958;2023-05-10T11:36:03;0.27;;;0.17;;
9280;SDS011;4679;47.966;7.958;2023-05-10T11:38:05;1.03;;;0.30;;
9280;SDS011;4679;47.966;7.958;2023-05-10T11:40:08;1.03;;;0.30;;
9280;SDS011;4679;47.966;7.958;2023-05-10T11:42:11;2.70;;;0.30;;
9280;SDS011;4679;47.966;7.958;2023-05-10T11:44:13;1.63;;;0.30;;
9280;SDS011;4679;47.966;7.958;2023-05-10T11:46:16;2.93;;;0.20;;
9280;SDS011;4679;47.966;7.958;2023-05-10T11:48:20;3.40;;;0.37;;
9280;SDS011;4679;47.966;7.958;2023-05-10T11:50:24;0.60;;;0.20;;
9280;SDS011;4679;47.966;7.958;2023-05-10T11:52:28;1.53;;;0.30;;
9280;SDS011;4679;47.966;7.958;2023-05-10T11:54:30;0.53;;;0.20;;
9280;SDS011;4679;47.966;7.958;2023-05-10T11:56:32;0.97;;;0.20;;
9280;SDS011;4679;47.966;7.958;2023-05-10T11:58:35;2.23;;;0.20;;
9280;SDS011;4679;47.966;7.958;2023-05-10T12:00:37;1.03;;;0.40;;
9280;SDS011;4679;47.966;7.958;2023-05-10T12:02:40;1.03;;;0.20;;
9280;SDS011;4679;47.966;7.958;2023-05-10T12:04:42;0.37;;;0.20;;
9280;SDS011;4679;47.966;7.958;2023-05-10T12:06:44;0.60;;;0.20;;
9280;SDS011;4679;47.966;7.958;2023-05-10T12:08:48;1.30;;;0.20;;
9280;SDS011;4679;47.966;7.958;2023-05-10T12:10:53;0.93;;;0.30;;
9280;SDS011;4679;47.966;7.958;2023-05-10T12:13:05;0.90;;;0.27;;
9280;SDS011;4679;47.966;7.958;2023-05-10T12:15:17;1.17;;;0.40;;
9280;SDS011;4679;47.966;7.958;2023-05-10T12:17:20;0.30;;;0.20;;
9280;SDS011;4679;47.966;7.958;2023-05-10T12:19:22;0.40;;;0.20;;
9280;SDS011;4679;47.966;7.958;2023-05-10T12:21:25;1.13;;;0.20;;
9280;SDS011;4679;47.966;7.958;2023-05-10T12:23:29;0.20;;;0.20;;
9280;SDS011;4679;47.966;7.958;2023-05-10T12:25:33;0.70;;;0.20;;
9280;SDS011;4679;47.966;7.958;2023-05-10T12:27:36;0.77;;;0.20;;
9280;SDS011;4679;47.966;7.958;2023-05-10T12:29:41;1.20;;;0.20;;
9280;SDS011;4679;47.966;7.958;2023-05-10T12:31:51;0.67;;;0.10;;
9280;SDS011;4679;47.966;7.958;2023-05-10T12:33:53;1.00;;;0.10;;
9280;SDS011;4679;47.966;7.958;2023-05-10T12:35:55;0.40;;;0.20;;
9280;SDS011;4679;47.966;7.958;2023-05-10T12:38:00;0.30;;;0.10;;
9280;SDS011;4679;47.966;7.958;2023-05-10T12:40:03;1.93;;;0.20;;
9280;SDS011;4679;47.966;7.958;2023-05-10T12:42:06;0.53;;;0.53;;
9280;SDS011;4679;47.966;7.958;2023-05-10T12:44:08;2.83;;;0.20;;
9280;SDS011;4679;47.966;7.958;2023-05-10T12:46:11;0.93;;;0.20;;
9280;SDS011;4679;47.966;7.958;2023-05-10T12:48:14;1.83;;;0.40;;
9280;SDS011;4679;47.966;7.958;2023-05-10T12:50:16;1.03;;;0.27;;
9280;SDS011;4679;47.966;7.958;2023-05-10T12:52:18;0.30;;;0.30;;
9280;SDS011;4679;47.966;7.958;2023-05-10T12:54:20;1.00;;;0.30;;
9280;SDS011;4679;47.966;7.958;2023-05-10T12:56:21;2.10;;;0.30;;
9280;SDS011;4679;47.966;7.958;2023-05-10T12:58:25;0.20;;;0.20;;
9280;SDS011;4679;47.966;7.958;2023-05-10T13:00:26;1.33;;;0.30;;
9280;SDS011;4679;47.966;7.958;2023-05-10T13:02:28;0.70;;;0.27;;
9280;SDS011;4679;47.966;7.958;2023-05-10T13:04:30;1.33;;;0.20;;
9280;SDS011;4679;47.966;7.958;2023-05-10T13:06:32;0.77;;;0.30;;
9280;SDS011;4679;47.966;7.958;2023-05-10T13:08:34;1.80;;;0.40;;
9280;SDS011;4679;47.966;7.958;2023-05-10T13:10:36;0.60;;;0.30;;
9280;SDS011;4679;47.966;7.958;2023-05-10T13:12:37;0.47;;;0.20;;
9280;SDS011;4679;47.966;7.958;2023-05-10T13:14:40;0.20;;;0.10;;
9280;SDS011;4679;47.966;7.958;2023-05-10T13:16:42;0.83;;;0.10;;
9280;SDS011;4679;47.966;7.958;2023-05-10T13:18:44;0.40;;;0.17;;
9280;SDS011;4679;47.966;7.958;2023-05-10T13:20:46;0.20;;;0.20;;
9280;SDS011;4679;47.966;7.958;2023-05-10T13:22:49;0.20;;;0.20;;
9280;SDS011;4679;47.966;7.958;2023-05-10T13:24:51;0.37;;;0.10;;
9280;SDS011;4679;47.966;7.958;2023-05-10T13:26:53;0.13;;;0.10;;
9280;SDS011;4679;47.966;7.958;2023-05-10T13:28:54;0.73;;;0.10;;
9280;SDS011;4679;47.966;7.958;2023-05-10T13:30:58;0.23;;;0.10;;
9280;SDS011;4679;47.966;7.958;2023-05-10T13:33:00;0.40;;;0.20;;
9280;SDS011;4679;47.966;7.958;2023-05-10T13:35:02;0.43;;;0.13;;
9280;SDS011;4679;47.966;7.958;2023-05-10T13:37:04;0.10;;;0.10;;
9280;SDS011;4679;47.966;7.958;2023-05-10T13:39:06;0.13;;;0.10;;
9280;SDS011;4679;47.966;7.958;2023-05-10T13:41:08;0.93;;;0.20;;
9280;SDS011;4679;47.966;7.958;2023-05-10T13:43:11;0.20;;;0.20;;
9280;SDS011;4679;47.966;7.958;2023-05-10T13:45:13;1.20;;;0.70;;
9280;SDS011;4679;47.966;7.958;2023-05-10T13:47:16;1.20;;;0.13;;
9280;SDS011;4679;47.966;7.958;2023-05-10T13:49:19;0.30;;;0.10;;
9280;SDS011;4679;47.966;7.958;2023-05-10T13:51:22;0.90;;;0.20;;
9280;SDS011;4679;47.966;7.958;2023-05-10T13:53:24;0.60;;;0.10;;
9280;SDS011;4679;47.966;7.958;2023-05-10T13:55:26;0.20;;;0.10;;
9280;SDS011;4679;47.966;7.958;2023-05-10T13:57:28;1.60;;;0.10;;
9280;SDS011;4679;47.966;7.958;2023-05-10T13:59:30;0.20;;;0.10;;
9280;SDS011;4679;47.966;7.958;2023-05-10T14:01:32;0.50;;;0.10;;
9280;SDS011;4679;47.966;7.958;2023-05-10T14:03:36;2.63;;;0.13;;
9280;SDS011;4679;47.966;7.958;2023-05-10T14:05:37;1.23;;;0.20;;
9280;SDS011;4679;47.966;7.958;2023-05-10T14:07:40;1.17;;;0.10;;
9280;SDS011;4679;47.966;7.958;2023-05-10T14:09:42;0.37;;;0.10;;
9280;SDS011;4679;47.966;7.958;2023-05-10T14:11:44;0.07;;;0.07;;
9280;SDS011;4679;47.966;7.958;2023-05-10T14:13:47;0.20;;;0.10;;
9280;SDS011;4679;47.966;7.958;2023-05-10T14:15:49;0.37;;;0.17;;
9280;SDS011;4679;47.966;7.958;2023-05-10T14:17:51;0.10;;;0.10;;
9280;SDS011;4679;47.966;7.958;2023-05-10T14:19:54;0.70;;;0.10;;
9280;SDS011;4679;47.966;7.958;2023-05-10T14:21:56;0.17;;;0.17;;
9280;SDS011;4679;47.966;7.958;2023-05-10T14:23:59;0.07;;;0.07;;
9280;SDS011;4679;47.966;7.958;2023-05-10T14:26:01;0.10;;;0.10;;
9280;SDS011;4679;47.966;7.958;2023-05-10T14:28:03;0.73;;;0.10;;
9280;SDS011;4679;47.966;7.958;2023-05-10T14:30:06;0.37;;;0.10;;
9280;SDS011;4679;47.966;7.958;2023-05-10T14:32:09;0.20;;;0.20;;
9280;SDS011;4679;47.966;7.958;2023-05-10T14:34:10;0.50;;;0.10;;
9280;SDS011;4679;47.966;7.958;2023-05-10T14:36:13;0.63;;;0.10;;
9280;SDS011;4679;47.966;7.958;2023-05-10T14:38:16;0.10;;;0.10;;
9280;SDS011;4679;47.966;7.958;2023-05-10T14:40:18;1.23;;;0.10;;
9280;SDS011;4679;47.966;7.958;2023-05-10T14:42:20;0.10;;;0.10;;
9280;SDS011;4679;47.966;7.958;2023-05-10T14:44:22;0.50;;;0.10;;
9280;SDS011;4679;47.966;7.958;2023-05-10T14:46:23;0.10;;;0.10;;
9280;SDS011;4679;47.966;7.958;2023-05-10T14:48:25;0.33;;;0.07;;
9280;SDS011;4679;47.966;7.958;2023-05-10T14:50:27;0.00;;;0.00;;
9280;SDS011;4679;47.966;7.958;2023-05-10T14:52:30;0.27;;;0.10;;
9280;SDS011;4679;47.966;7.958;2023-05-10T14:54:32;0.10;;;0.10;;
9280;SDS011;4679;47.966;7.958;2023-05-10T14:56:34;0.20;;;0.20;;
9280;SDS011;4679;47.966;7.958;2023-05-10T14:58:37;0.83;;;0.10;;
9280;SDS011;4679;47.966;7.958;2023-05-10T15:00:39;0.20;;;0.10;;
9280;SDS011;4679;47.966;7.958;2023-05-10T15:02:41;2.27;;;0.20;;
9280;SDS011;4679;47.966;7.958;2023-05-10T15:04:44;0.57;;;0.10;;
9280;SDS011;4679;47.966;7.958;2023-05-10T15:06:45;0.30;;;0.10;;
9280;SDS011;4679;47.966;7.958;2023-05-10T15:08:48;0.50;;;0.10;;
9280;SDS011;4679;47.966;7.958;2023-05-10T15:10:50;0.47;;;0.10;;
9280;SDS011;4679;47.966;7.958;2023-05-10T15:12:52;0.10;;;0.10;;
9280;SDS011;4679;47.966;7.958;2023-05-10T15:14:54;0.27;;;0.10;;
9280;SDS011;4679;47.966;7.958;2023-05-10T15:16:56;1.13;;;0.10;;
9280;SDS011;4679;47.966;7.958;2023-05-10T15:18:57;0.67;;;0.00;;
9280;SDS011;4679;47.966;7.958;2023-05-10T15:20:59;0.77;;;0.10;;
9280;SDS011;4679;47.966;7.958;2023-05-10T15:23:01;0.67;;;0.10;;
9280;SDS011;4679;47.966;7.958;2023-05-10T15:25:04;0.43;;;0.10;;
9280;SDS011;4679;47.966;7.958;2023-05-10T15:27:06;0.20;;;0.10;;
9280;SDS011;4679;47.966;7.958;2023-05-10T15:29:08;0.20;;;0.20;;
9280;SDS011;4679;47.966;7.958;2023-05-10T15:31:10;0.20;;;0.10;;
9280;SDS011;4679;47.966;7.958;2023-05-10T15:33:12;0.70;;;0.17;;
9280;SDS011;4679;47.966;7.958;2023-05-10T15:35:14;0.20;;;0.17;;
9280;SDS011;4679;47.966;7.958;2023-05-10T15:37:16;0.23;;;0.17;;
9280;SDS011;4679;47.966;7.958;2023-05-10T15:39:18;0.57;;;0.10;;
9280;SDS011;4679;47.966;7.958;2023-05-10T15:41:21;0.50;;;0.10;;
9280;SDS011;4679;47.966;7.958;2023-05-10T15:43:23;0.20;;;0.20;;
9280;SDS011;4679;47.966;7.958;2023-05-10T15:45:25;0.10;;;0.03;;
9280;SDS011;4679;47.966;7.958;2023-05-10T15:47:29;0.23;;;0.23;;
9280;SDS011;4679;47.966;7.958;2023-05-10T15:49:31;0.10;;;0.10;;
9280;SDS011;4679;47.966;7.958;2023-05-10T15:51:32;0.10;;;0.10;;
9280;SDS011;4679;47.966;7.958;2023-05-10T15:53:34;1.60;;;0.10;;
9280;SDS011;4679;47.966;7.958;2023-05-10T15:55:36;0.63;;;0.20;;
9280;SDS011;4679;47.966;7.958;2023-05-10T15:57:39;0.53;;;0.20;;
9280;SDS011;4679;47.966;7.958;2023-05-10T15:59:41;1.23;;;0.20;;
9280;SDS011;4679;47.966;7.958;2023-05-10T16:01:43;0.20;;;0.20;;
9280;SDS011;4679;47.966;7.958;2023-05-10T16:03:45;0.90;;;0.13;;
9280;SDS011;4679;47.966;7.958;2023-05-10T16:05:46;0.23;;;0.20;;
9280;SDS011;4679;47.966;7.958;2023-05-10T16:07:48;0.10;;;0.10;;
9280;SDS011;4679;47.966;7.958;2023-05-10T16:09:50;0.10;;;0.10;;
9280;SDS011;4679;47.966;7.958;2023-05-10T16:11:51;0.30;;;0.20;;
9280;SDS011;4679;47.966;7.958;2023-05-10T16:13:54;0.67;;;0.20;;
9280;SDS011;4679;47.966;7.958;2023-05-10T16:15:56;0.30;;;0.10;;
9280;SDS011;4679;47.966;7.958;2023-05-10T16:17:58;0.83;;;0.10;;
9280;SDS011;4679;47.966;7.958;2023-05-10T16:19:59;0.83;;;0.10;;
9280;SDS011;4679;47.966;7.958;2023-05-10T16:22:01;1.40;;;0.10;;
9280;SDS011;4679;47.966;7.958;2023-05-10T16:24:03;0.30;;;0.10;;
9280;SDS011;4679;47.966;7.958;2023-05-10T16:26:05;0.83;;;0.17;;
9280;SDS011;4679;47.966;7.958;2023-05-10T16:28:06;1.70;;;0.20;;
9280;SDS011;4679;47.966;7.958;2023-05-10T16:30:10;0.37;;;0.20;;
9280;SDS011;4679;47.966;7.958;2023-05-10T16:32:12;0.10;;;0.10;;
9280;SDS011;4679;47.966;7.958;2023-05-10T16:34:13;0.73;;;0.10;;
9280;SDS011;4679;47.966;7.958;2023-05-10T16:36:15;0.30;;;0.10;;
9280;SDS011;4679;47.966;7.958;2023-05-10T16:38:17;2.10;;;0.10;;
9280;SDS011;4679;47.966;7.958;2023-05-10T16:40:20;1.00;;;0.10;;
9280;SDS011;4679;47.966;7.958;2023-05-10T16:42:23;0.07;;;0.07;;
9280;SDS011;4679;47.966;7.958;2023-05-10T16:44:25;0.37;;;0.10;;
9280;SDS011;4679;47.966;7.958;2023-05-10T16:46:28;0.20;;;0.10;;
9280;SDS011;4679;47.966;7.958;2023-05-10T16:48:29;0.10;;;0.10;;
9280;SDS011;4679;47.966;7.958;2023-05-10T16:50:31;0.10;;;0.10;;
9280;SDS011;4679;47.966;7.958;2023-05-10T16:52:33;0.33;;;0.20;;
9280;SDS011;4679;47.966;7.958;2023-05-10T16:54:36;0.30;;;0.10;;
9280;SDS011;4679;47.966;7.958;2023-05-10T16:56:37;0.10;;;0.10;;
9280;SDS011;4679;47.966;7.958;2023-05-10T16:58:40;0.30;;;0.20;;
9280;SDS011;4679;47.966;7.958;2023-05-10T17:00:41;0.40;;;0.20;;
9280;SDS011;4679;47.966;7.958;2023-05-10T17:02:44;2.80;;;0.10;;
9280;SDS011;4679;47.966;7.958;2023-05-10T17:04:46;1.13;;;0.20;;
9280;SDS011;4679;47.966;7.958;2023-05-10T17:06:48;0.10;;;0.00;;
9280;SDS011;4679;47.966;7.958;2023-05-10T17:08:50;0.20;;;0.10;;
9280;SDS011;4679;47.966;7.958;2023-05-10T17:10:52;0.50;;;0.10;;
9280;SDS011;4679;47.966;7.958;2023-05-10T17:12:53;0.50;;;0.10;;
9280;SDS011;4679;47.966;7.958;2023-05-10T17:14:55;0.70;;;0.20;;
9280;SDS011;4679;47.966;7.958;2023-05-10T17:16:57;0.10;;;0.10;;
9280;SDS011;4679;47.966;7.958;2023-05-10T17:19:01;0.30;;;0.10;;
9280;SDS011;4679;47.966;7.958;2023-05-10T17:21:03;0.40;;;0.20;;
9280;SDS011;4679;47.966;7.958;2023-05-10T17:23:05;0.17;;;0.10;;
9280;SDS011;4679;47.966;7.958;2023-05-10T17:25:07;0.13;;;0.10;;
9280;SDS011;4679;47.966;7.958;2023-05-10T17:27:09;0.13;;;0.13;;
9280;SDS011;4679;47.966;7.958;2023-05-10T17:29:11;2.37;;;0.10;;
9280;SDS011;4679;47.966;7.958;2023-05-10T17:31:15;0.40;;;0.10;;
9280;SDS011;4679;47.966;7.958;2023-05-10T17:33:17;0.50;;;0.30;;
9280;SDS011;4679;47.966;7.958;2023-05-10T17:35:20;0.30;;;0.20;;
9280;SDS011;4679;47.966;7.958;2023-05-10T17:37:22;0.43;;;0.30;;
9280;SDS011;4679;47.966;7.958;2023-05-10T17:39:24;0.47;;;0.20;;
9280;SDS011;4679;47.966;7.958;2023-05-10T17:41:26;0.30;;;0.10;;
9280;SDS011;4679;47.966;7.958;2023-05-10T17:43:28;0.40;;;0.10;;
9280;SDS011;4679;47.966;7.958;2023-05-10T17:45:30;1.00;;;0.00;;
9280;SDS011;4679;47.966;7.958;2023-05-10T17:47:31;0.10;;;0.10;;
9280;SDS011;4679;47.966;7.958;2023-05-10T17:49:33;0.57;;;0.10;;
9280;SDS011;4679;47.966;7.958;2023-05-10T17:51:36;0.20;;;0.10;;
9280;SDS011;4679;47.966;7.958;2023-05-10T17:53:38;0.87;;;0.20;;
9280;SDS011;4679;47.966;7.958;2023-05-10T17:55:40;0.73;;;0.10;;
9280;SDS011;4679;47.966;7.958;2023-05-10T17:57:42;1.17;;;0.10;;
9280;SDS011;4679;47.966;7.958;2023-05-10T17:59:44;0.53;;;0.20;;
9280;SDS011;4679;47.966;7.958;2023-05-10T18:01:46;0.10;;;0.10;;
9280;SDS011;4679;47.966;7.958;2023-05-10T18:03:48;3.20;;;0.83;;